Flight Track Log - Related Links

Times and Time Zones

All times are in EDT time to prevent confusion due to time zone crossing. See the N400PU flight status page for this flight to view local times or setup timezone preferences in your user account.

Time Position Orientation Groundspeed Altitude Reporting Facility
EDT Latitude Longitude Course Direction KTS MPH feet Rate Location/Type
Tue 12:16:34 PM 38.9333 -77.5333 243° Southwest 228 262 2,700  Level Potomac TRACON
Tue 12:17:35 PM 38.9000 -77.6167 243° Southwest 262 302 4,800 2,132 Climbing Potomac TRACON
Tue 12:18:35 PM 38.9000 -77.7167 270° West 274 315 7,000 2,275 Climbing Potomac TRACON
Tue 12:20:08 PM 38.8983 -77.8642 269° West 291 335 10,600 2,377 Climbing Washington Center
Tue 12:21:09 PM 38.9150 -77.9633 282° West 291 335 13,100 2,380 Climbing Washington Center
Tue 12:22:09 PM 38.9339 -78.0681 283° West 296 341 15,400 2,182 Climbing Washington Center
Tue 12:23:10 PM 38.9522 -78.1781 282° West 296 341 17,500 2,033 Climbing Washington Center
Tue 12:24:10 PM 38.9581 -78.2906 274° West 307 353 19,500 2,034 Climbing Washington Center
Tue 12:25:08 PM 38.9453 -78.4022 262° West 313 360 21,500 1,271 Climbing Washington Center
Tue 12:26:08 PM 38.9339 -78.5272 263° West 338 389 22,000 1,091 Climbing Washington Center
Tue 12:27:09 PM 38.9161 -78.6597 260° West 366 421 23,700 1,869 Climbing Washington Center
Tue 12:28:10 PM 38.8836 -78.7839 251° West 372 428 25,800 1,664 Climbing Washington Center
Tue 12:29:08 PM 38.8594 -78.9028 255° West 366 421 27,000 1,424 Climbing Washington Center
Tue 12:30:08 PM 38.8392 -79.0325 259° West 366 421 28,600 1,488 Climbing Washington Center
Tue 12:31:09 PM 38.8314 -79.1572 265° West 366 421 30,000 694 Climbing Washington Center
Tue 12:32:09 PM 38.8694 -79.2817 291° West 359 413 30,000 200 Level Washington Center
Tue 12:33:09 PM 38.9108 -79.4172 291° West 381 438 30,400 992 Climbing Washington Center
Tue 12:34:10 PM 38.9486 -79.5419 291° West 387 445 32,000 793 Climbing Washington Center
Tue 12:35:10 PM 38.9800 -79.6639 288° West 397 457 32,000  Level Washington Center
Tue 12:36:08 PM 38.9981 -79.8039 279° West 397 457 32,000  Level Washington Center
Tue 12:37:24 PM 39.0161 -79.9958 277° West 409 471 32,000  Level Indianapolis Center
Tue 12:38:26 PM 39.0311 -80.1344 278° West 412 474 32,000 629 Level Indianapolis Center
Tue 12:39:28 PM 39.0481 -80.2761 279° West 408 470 33,300 968 Climbing Indianapolis Center
Tue 12:40:30 PM 39.0600 -80.4086 277° West 380 437 34,000 634 Climbing Indianapolis Center
Tue 12:41:31 PM 39.0786 -80.5747 278° West 391 450 34,600 878 Climbing Indianapolis Center
Tue 12:42:33 PM 39.1114 -80.7050 288° West 381 438 35,800 677 Climbing Indianapolis Center
Tue 12:43:35 PM 39.1419 -80.8333 287° West 377 434 36,000 97 Climbing Indianapolis Center
Tue 12:44:37 PM 39.1739 -80.9694 287° West 392 451 36,000  Level Indianapolis Center
Tue 12:45:38 PM 39.2072 -81.1067 287° West 401 461 36,000  Level Indianapolis Center
Tue 12:46:40 PM 39.2392 -81.2450 287° West 404 465 36,000  Level Indianapolis Center
Tue 12:47:42 PM 39.2717 -81.3806 287° West 400 460 36,000  Level Indianapolis Center
Tue 12:48:44 PM 39.3094 -81.5447 287° West 399 459 36,000  Level Indianapolis Center
Tue 12:49:46 PM 39.3414 -81.6822 287° West 401 461 36,000  Level Indianapolis Center
Tue 12:50:48 PM 39.3733 -81.8214 287° West 404 465 36,000  Level Indianapolis Center
Tue 12:51:49 PM 39.4044 -81.9625 286° West 409 471 36,000  Level Indianapolis Center
Tue 12:52:51 PM 39.4361 -82.1025 286° West 408 470 36,000  Level Indianapolis Center
Tue 12:53:54 PM 39.4686 -82.2433 287° West 409 471 36,000  Level Indianapolis Center
Tue 12:54:55 PM 39.5061 -82.4142 286° West 412 474 36,000  Level Indianapolis Center
Tue 12:55:57 PM 39.5375 -82.5539 286° West 408 470 36,000  Level Indianapolis Center
Tue 12:56:59 PM 39.5683 -82.6961 286° West 408 470 36,000  Level Indianapolis Center
Tue 12:58:01 PM 39.5994 -82.8383 286° West 411 473 36,000  Level Indianapolis Center
Tue 12:59:03 PM 39.6292 -82.9814 285° West 413 475 36,000 -339 Level Indianapolis Center
Tue 01:00:05 PM 39.6603 -83.1194 286° West 404 465 35,300 -484 Descending Indianapolis Center
Tue 01:01:07 PM 39.6978 -83.2858 286° West 402 463 35,000 -146 Descending Indianapolis Center
Tue 01:02:08 PM 39.7267 -83.4281 285° West 407 468 35,000  Level Indianapolis Center
Tue 01:03:10 PM 39.7578 -83.5725 286° West 413 475 35,000  Level Indianapolis Center
Tue 01:04:12 PM 39.7889 -83.7167 286° West 415 478 35,000 -290 Level Indianapolis Center
Tue 01:05:14 PM 39.8183 -83.8564 285° West 411 473 34,400 -1,113 Descending Indianapolis Center
Tue 01:06:16 PM 39.8478 -83.9989 285° West 411 473 32,700 -1,839 Descending Indianapolis Center
Tue 01:07:18 PM 39.8825 -84.1669 285° West 405 466 30,600 -1,306 Descending Indianapolis Center
Tue 01:08:20 PM 39.9094 -84.3075 284° West 403 464 30,000 -732 Descending Indianapolis Center
Tue 01:09:21 PM 39.9408 -84.4550 286° West 421 484 29,100 -976 Descending Indianapolis Center
Tue 01:10:23 PM 39.9703 -84.6053 284° West 430 495 28,000 -532 Descending Indianapolis Center
Tue 01:11:25 PM 40.0017 -84.7572 285° West 434 499 28,000  Level Indianapolis Center
Tue 01:12:27 PM 40.0311 -84.9094 284° West 437 503 28,000 -194 Level Indianapolis Center
Tue 01:13:29 PM 40.0689 -85.0969 285° West 445 512 27,600 -1,161 Descending Indianapolis Center
Tue 01:14:31 PM 40.0989 -85.2489 285° West 439 505 25,600 -2,081 Descending Indianapolis Center
Tue 01:15:33 PM 40.1272 -85.3975 284° West 430 495 23,300 -2,226 Descending Indianapolis Center
Tue 01:16:35 PM 40.1569 -85.5483 285° West 430 495 21,000 -2,226 Descending Indianapolis Center
Tue 01:17:37 PM 40.1847 -85.6961 284° West 427 491 18,700 -2,226 Descending Indianapolis Center
Tue 01:18:39 PM 40.2117 -85.8375 284° West 415 478 16,400 -2,642 Descending Indianapolis Center
Tue 01:19:26 PM 40.2350 -85.9661 283° West 381 438 13,900 -2,886 Descending Chicago Center
Tue 01:19:58 PM 40.2464 -86.0292 283° West 359 413 12,600 -2,516 Descending Chicago Center
Tue 01:20:28 PM 40.2583 -86.0894 285° West 359 413 11,300 -2,400 Descending Chicago Center
Tue 01:20:58 PM 40.2697 -86.1528 283° West 326 375 10,200 -1,839 Descending Chicago Center
Tue 01:21:30 PM 40.2786 -86.1997 284° West 322 371 9,400 -1,636 Descending Chicago Center
Tue 01:21:53 PM 40.2856 -86.2436 282° West 272 313 8,700 -1,548 Descending Chicago Center
Tue 01:22:32 PM 40.2964 -86.2944 286° West 284 327 7,800 -1,500 Descending Chicago Center
Tue 01:22:53 PM 40.3011 -86.3372 278° West 266 306 7,200 -1,452 Descending Chicago Center
Tue 01:23:34 PM 40.3131 -86.3914 286° West 276 318 6,300 -1,636 Descending Chicago Center
Tue 01:23:48 PM 40.3144 -86.4333 273° West 274 315 5,700 -1,548 Descending Chicago Center
Tue 01:24:36 PM 40.3203 -86.4922 277° West 279 321 4,700 -1,600 Descending Chicago Center
Tue 01:24:48 PM 40.3239 -86.5267 278° West 272 313 4,100 -1,645 Descending Chicago Center
Tue 01:25:38 PM 40.3336 -86.6078 279° West 275 316 3,000 -1,082 Descending Chicago Center
Tue 01:25:49 PM 40.3347 -86.6283 274° West 267 307 3,000  Level Chicago Center
Tue 01:26:40 PM 40.3464 -86.7031 282° West 271 312 3,000  Level Chicago Center
Tue 01:26:50 PM 40.3458 -86.7217 268° West 267 307 3,000 -197 Level Chicago Center
Tue 01:27:41 PM 40.3583 -86.7886 284° West 260 299 2,800 -444 Descending Chicago Center
Tue 01:27:44 PM 40.3578 -86.7961 264° West 212 244 2,600 -387 Descending Chicago Center
Tue 01:28:43 PM 40.3703 -86.8586 285° West 246 283 2,400 -203 Descending Chicago Center

Login

Don't have an account? Register now (free) for customized features, flight alerts, and more!